sensor_id;sensor_type;location;lat;lon;timestamp;P1;durP1;ratioP1;P2;durP2;ratioP2
74867;SDS011;63419;42.262;12.210;2022-12-29T00:01:00;23.70;;;7.22;;
74867;SDS011;63419;42.262;12.210;2022-12-29T00:03:28;22.40;;;6.68;;
74867;SDS011;63419;42.262;12.210;2022-12-29T00:05:56;22.50;;;8.25;;
74867;SDS011;63419;42.262;12.210;2022-12-29T00:08:24;30.00;;;7.35;;
74867;SDS011;63419;42.262;12.210;2022-12-29T00:11:10;24.15;;;7.25;;
74867;SDS011;63419;42.262;12.210;2022-12-29T00:13:41;27.05;;;7.78;;
74867;SDS011;63419;42.262;12.210;2022-12-29T00:16:29;30.48;;;7.78;;
74867;SDS011;63419;42.262;12.210;2022-12-29T00:18:58;25.40;;;8.40;;
74867;SDS011;63419;42.262;12.210;2022-12-29T00:21:26;29.88;;;7.47;;
74867;SDS011;63419;42.262;12.210;2022-12-29T00:24:17;28.23;;;7.93;;
74867;SDS011;63419;42.262;12.210;2022-12-29T00:27:14;23.73;;;7.60;;
74867;SDS011;63419;42.262;12.210;2022-12-29T00:30:00;28.58;;;7.78;;
74867;SDS011;63419;42.262;12.210;2022-12-29T00:32:46;26.85;;;8.15;;
74867;SDS011;63419;42.262;12.210;2022-12-29T00:35:33;22.52;;;7.53;;
74867;SDS011;63419;42.262;12.210;2022-12-29T00:38:12;26.77;;;7.63;;
74867;SDS011;63419;42.262;12.210;2022-12-29T00:40:59;23.67;;;7.47;;
74867;SDS011;63419;42.262;12.210;2022-12-29T00:43:45;23.52;;;7.05;;
74867;SDS011;63419;42.262;12.210;2022-12-29T00:46:31;22.45;;;7.30;;
74867;SDS011;63419;42.262;12.210;2022-12-29T00:49:00;24.92;;;7.70;;
74867;SDS011;63419;42.262;12.210;2022-12-29T00:51:47;24.90;;;7.70;;
74867;SDS011;63419;42.262;12.210;2022-12-29T00:54:15;22.50;;;6.72;;
74867;SDS011;63419;42.262;12.210;2022-12-29T00:56:45;25.63;;;7.93;;
74867;SDS011;63419;42.262;12.210;2022-12-29T00:59:14;22.45;;;7.53;;
74867;SDS011;63419;42.262;12.210;2022-12-29T01:01:43;22.17;;;6.43;;
74867;SDS011;63419;42.262;12.210;2022-12-29T01:04:12;21.13;;;6.32;;
74867;SDS011;63419;42.262;12.210;2022-12-29T01:06:40;23.05;;;7.45;;
74867;SDS011;63419;42.262;12.210;2022-12-29T01:09:08;24.10;;;8.27;;
74867;SDS011;63419;42.262;12.210;2022-12-29T01:11:55;23.85;;;7.85;;
74867;SDS011;63419;42.262;12.210;2022-12-29T01:14:23;26.42;;;7.53;;
74867;SDS011;63419;42.262;12.210;2022-12-29T01:16:51;23.13;;;7.47;;
74867;SDS011;63419;42.262;12.210;2022-12-29T01:19:19;24.30;;;7.80;;
74867;SDS011;63419;42.262;12.210;2022-12-29T01:21:47;35.83;;;6.35;;
74867;SDS011;63419;42.262;12.210;2022-12-29T01:24:15;31.10;;;7.05;;
74867;SDS011;63419;42.262;12.210;2022-12-29T01:26:45;23.95;;;7.60;;
74867;SDS011;63419;42.262;12.210;2022-12-29T01:29:13;30.45;;;6.85;;
74867;SDS011;63419;42.262;12.210;2022-12-29T01:31:45;26.80;;;7.20;;
74867;SDS011;63419;42.262;12.210;2022-12-29T01:34:12;25.80;;;6.97;;
74867;SDS011;63419;42.262;12.210;2022-12-29T01:36:40;30.83;;;7.00;;
74867;SDS011;63419;42.262;12.210;2022-12-29T01:39:07;26.90;;;7.38;;
74867;SDS011;63419;42.262;12.210;2022-12-29T01:41:34;27.35;;;8.07;;
74867;SDS011;63419;42.262;12.210;2022-12-29T01:44:01;28.67;;;8.38;;
74867;SDS011;63419;42.262;12.210;2022-12-29T01:46:39;26.90;;;8.57;;
74867;SDS011;63419;42.262;12.210;2022-12-29T01:49:24;26.05;;;7.35;;
74867;SDS011;63419;42.262;12.210;2022-12-29T01:51:59;28.20;;;8.40;;
74867;SDS011;63419;42.262;12.210;2022-12-29T01:57:11;23.33;;;7.63;;
74867;SDS011;63419;42.262;12.210;2022-12-29T01:59:49;21.13;;;7.68;;
74867;SDS011;63419;42.262;12.210;2022-12-29T02:02:36;21.77;;;9.32;;
74867;SDS011;63419;42.262;12.210;2022-12-29T02:08:13;28.73;;;9.43;;
74867;SDS011;63419;42.262;12.210;2022-12-29T02:13:09;22.02;;;8.02;;
74867;SDS011;63419;42.262;12.210;2022-12-29T02:27:24;18.48;;;8.40;;
74867;SDS011;63419;42.262;12.210;2022-12-29T02:36:15;24.80;;;7.93;;
74867;SDS011;63419;42.262;12.210;2022-12-29T02:39:29;25.65;;;9.32;;
74867;SDS011;63419;42.262;12.210;2022-12-29T02:42:09;17.90;;;7.75;;
74867;SDS011;63419;42.262;12.210;2022-12-29T02:50:40;21.02;;;8.52;;
74867;SDS011;63419;42.262;12.210;2022-12-29T02:53:27;27.77;;;9.13;;
74867;SDS011;63419;42.262;12.210;2022-12-29T02:56:17;22.10;;;8.52;;
74867;SDS011;63419;42.262;12.210;2022-12-29T03:05:21;21.50;;;8.07;;
74867;SDS011;63419;42.262;12.210;2022-12-29T03:10:39;21.35;;;8.60;;
74867;SDS011;63419;42.262;12.210;2022-12-29T03:13:39;16.10;;;8.02;;
74867;SDS011;63419;42.262;12.210;2022-12-29T03:16:45;20.50;;;7.53;;
74867;SDS011;63419;42.262;12.210;2022-12-29T03:19:24;21.88;;;8.23;;
74867;SDS011;63419;42.262;12.210;2022-12-29T03:22:06;16.70;;;7.10;;
74867;SDS011;63419;42.262;12.210;2022-12-29T03:24:55;21.02;;;8.48;;
74867;SDS011;63419;42.262;12.210;2022-12-29T03:27:44;23.65;;;8.15;;
74867;SDS011;63419;42.262;12.210;2022-12-29T03:30:17;19.80;;;9.00;;
74867;SDS011;63419;42.262;12.210;2022-12-29T03:32:49;25.92;;;8.98;;
74867;SDS011;63419;42.262;12.210;2022-12-29T03:35:22;20.88;;;8.43;;
74867;SDS011;63419;42.262;12.210;2022-12-29T03:37:59;19.65;;;9.75;;
74867;SDS011;63419;42.262;12.210;2022-12-29T03:40:50;23.75;;;9.70;;
74867;SDS011;63419;42.262;12.210;2022-12-29T03:43:25;23.88;;;10.20;;
74867;SDS011;63419;42.262;12.210;2022-12-29T03:45:54;17.98;;;8.60;;
74867;SDS011;63419;42.262;12.210;2022-12-29T03:48:21;15.65;;;6.75;;
74867;SDS011;63419;42.262;12.210;2022-12-29T03:53:15;19.48;;;8.02;;
74867;SDS011;63419;42.262;12.210;2022-12-29T03:55:43;20.33;;;7.65;;
74867;SDS011;63419;42.262;12.210;2022-12-29T03:58:11;18.80;;;8.73;;
74867;SDS011;63419;42.262;12.210;2022-12-29T04:00:39;22.90;;;7.55;;
74867;SDS011;63419;42.262;12.210;2022-12-29T04:03:06;19.20;;;8.38;;
74867;SDS011;63419;42.262;12.210;2022-12-29T04:05:34;17.25;;;7.80;;
74867;SDS011;63419;42.262;12.210;2022-12-29T04:08:01;16.02;;;7.70;;
74867;SDS011;63419;42.262;12.210;2022-12-29T04:10:28;20.40;;;7.85;;
74867;SDS011;63419;42.262;12.210;2022-12-29T04:12:55;17.73;;;7.57;;
74867;SDS011;63419;42.262;12.210;2022-12-29T04:15:23;15.82;;;6.97;;
74867;SDS011;63419;42.262;12.210;2022-12-29T04:17:50;23.85;;;7.78;;
74867;SDS011;63419;42.262;12.210;2022-12-29T04:23:04;18.75;;;7.13;;
74867;SDS011;63419;42.262;12.210;2022-12-29T04:25:33;17.60;;;7.35;;
74867;SDS011;63419;42.262;12.210;2022-12-29T04:28:01;20.15;;;7.55;;
74867;SDS011;63419;42.262;12.210;2022-12-29T04:30:29;27.55;;;7.90;;
74867;SDS011;63419;42.262;12.210;2022-12-29T04:32:57;25.17;;;7.93;;
74867;SDS011;63419;42.262;12.210;2022-12-29T04:35:25;17.75;;;8.43;;
74867;SDS011;63419;42.262;12.210;2022-12-29T04:37:52;17.27;;;7.35;;
74867;SDS011;63419;42.262;12.210;2022-12-29T04:40:19;18.17;;;7.10;;
74867;SDS011;63419;42.262;12.210;2022-12-29T04:42:46;22.48;;;9.68;;
74867;SDS011;63419;42.262;12.210;2022-12-29T04:45:14;22.98;;;7.90;;
74867;SDS011;63419;42.262;12.210;2022-12-29T04:47:42;18.60;;;7.13;;
74867;SDS011;63419;42.262;12.210;2022-12-29T04:50:09;27.15;;;8.55;;
74867;SDS011;63419;42.262;12.210;2022-12-29T04:52:38;20.52;;;8.55;;
74867;SDS011;63419;42.262;12.210;2022-12-29T04:55:05;22.38;;;8.57;;
74867;SDS011;63419;42.262;12.210;2022-12-29T04:57:33;24.00;;;8.90;;
74867;SDS011;63419;42.262;12.210;2022-12-29T05:00:00;21.75;;;7.53;;
74867;SDS011;63419;42.262;12.210;2022-12-29T05:02:29;30.55;;;9.30;;
74867;SDS011;63419;42.262;12.210;2022-12-29T05:07:23;22.52;;;7.50;;
74867;SDS011;63419;42.262;12.210;2022-12-29T05:09:53;16.98;;;7.18;;
74867;SDS011;63419;42.262;12.210;2022-12-29T05:12:20;21.85;;;7.50;;
74867;SDS011;63419;42.262;12.210;2022-12-29T05:14:47;18.38;;;6.82;;
74867;SDS011;63419;42.262;12.210;2022-12-29T05:17:15;19.33;;;7.10;;
74867;SDS011;63419;42.262;12.210;2022-12-29T05:19:42;16.85;;;7.22;;
74867;SDS011;63419;42.262;12.210;2022-12-29T05:22:09;23.30;;;7.57;;
74867;SDS011;63419;42.262;12.210;2022-12-29T05:24:36;22.30;;;6.88;;
74867;SDS011;63419;42.262;12.210;2022-12-29T05:27:04;19.73;;;6.53;;
74867;SDS011;63419;42.262;12.210;2022-12-29T05:29:31;18.38;;;6.30;;
74867;SDS011;63419;42.262;12.210;2022-12-29T05:31:58;18.10;;;6.40;;
74867;SDS011;63419;42.262;12.210;2022-12-29T05:34:25;17.88;;;6.75;;
74867;SDS011;63419;42.262;12.210;2022-12-29T05:36:52;18.55;;;7.07;;
74867;SDS011;63419;42.262;12.210;2022-12-29T05:39:20;19.40;;;6.63;;
74867;SDS011;63419;42.262;12.210;2022-12-29T05:41:47;15.82;;;6.28;;
74867;SDS011;63419;42.262;12.210;2022-12-29T05:44:15;15.73;;;5.90;;
74867;SDS011;63419;42.262;12.210;2022-12-29T05:46:43;16.98;;;5.93;;
74867;SDS011;63419;42.262;12.210;2022-12-29T05:49:10;17.27;;;6.60;;
74867;SDS011;63419;42.262;12.210;2022-12-29T05:51:37;15.52;;;6.00;;
74867;SDS011;63419;42.262;12.210;2022-12-29T05:54:06;14.07;;;5.25;;
74867;SDS011;63419;42.262;12.210;2022-12-29T05:56:33;14.93;;;5.82;;
74867;SDS011;63419;42.262;12.210;2022-12-29T05:59:00;16.40;;;6.22;;
74867;SDS011;63419;42.262;12.210;2022-12-29T06:01:27;17.38;;;6.07;;
74867;SDS011;63419;42.262;12.210;2022-12-29T06:03:54;20.02;;;6.00;;
74867;SDS011;63419;42.262;12.210;2022-12-29T06:08:49;13.82;;;5.03;;
74867;SDS011;63419;42.262;12.210;2022-12-29T06:11:16;22.02;;;5.88;;
74867;SDS011;63419;42.262;12.210;2022-12-29T06:13:43;13.13;;;5.30;;
74867;SDS011;63419;42.262;12.210;2022-12-29T06:16:10;21.05;;;6.22;;
74867;SDS011;63419;42.262;12.210;2022-12-29T06:21:05;15.88;;;5.82;;
74867;SDS011;63419;42.262;12.210;2022-12-29T06:23:32;11.05;;;5.50;;
74867;SDS011;63419;42.262;12.210;2022-12-29T06:26:00;14.15;;;5.35;;
74867;SDS011;63419;42.262;12.210;2022-12-29T06:30:55;14.30;;;5.82;;
74867;SDS011;63419;42.262;12.210;2022-12-29T06:33:23;13.30;;;5.10;;
74867;SDS011;63419;42.262;12.210;2022-12-29T06:35:50;15.32;;;5.68;;
74867;SDS011;63419;42.262;12.210;2022-12-29T06:38:18;12.50;;;4.72;;
74867;SDS011;63419;42.262;12.210;2022-12-29T06:43:12;14.85;;;4.68;;
74867;SDS011;63419;42.262;12.210;2022-12-29T06:45:40;13.70;;;5.60;;
74867;SDS011;63419;42.262;12.210;2022-12-29T06:48:07;15.07;;;5.57;;
74867;SDS011;63419;42.262;12.210;2022-12-29T06:50:34;13.18;;;5.13;;
74867;SDS011;63419;42.262;12.210;2022-12-29T06:53:02;13.50;;;5.07;;
74867;SDS011;63419;42.262;12.210;2022-12-29T06:57:56;14.57;;;5.30;;
74867;SDS011;63419;42.262;12.210;2022-12-29T07:00:25;13.82;;;5.47;;
74867;SDS011;63419;42.262;12.210;2022-12-29T07:02:52;13.35;;;5.72;;
74867;SDS011;63419;42.262;12.210;2022-12-29T07:05:24;13.55;;;5.32;;
74867;SDS011;63419;42.262;12.210;2022-12-29T07:07:54;14.50;;;5.43;;
74867;SDS011;63419;42.262;12.210;2022-12-29T07:10:22;14.40;;;5.47;;
74867;SDS011;63419;42.262;12.210;2022-12-29T07:12:49;13.75;;;5.85;;
74867;SDS011;63419;42.262;12.210;2022-12-29T07:15:17;14.10;;;5.00;;
74867;SDS011;63419;42.262;12.210;2022-12-29T07:17:44;18.65;;;6.18;;
74867;SDS011;63419;42.262;12.210;2022-12-29T07:20:11;11.73;;;5.22;;
74867;SDS011;63419;42.262;12.210;2022-12-29T07:22:39;13.00;;;4.85;;
74867;SDS011;63419;42.262;12.210;2022-12-29T07:27:34;11.52;;;4.78;;
74867;SDS011;63419;42.262;12.210;2022-12-29T07:30:01;20.77;;;5.40;;
74867;SDS011;63419;42.262;12.210;2022-12-29T07:32:31;14.43;;;5.13;;
74867;SDS011;63419;42.262;12.210;2022-12-29T07:35:00;19.33;;;5.18;;
74867;SDS011;63419;42.262;12.210;2022-12-29T07:37:27;15.48;;;5.68;;
74867;SDS011;63419;42.262;12.210;2022-12-29T07:39:56;13.82;;;5.93;;
74867;SDS011;63419;42.262;12.210;2022-12-29T07:42:23;16.33;;;6.40;;
74867;SDS011;63419;42.262;12.210;2022-12-29T07:44:51;14.38;;;5.07;;
74867;SDS011;63419;42.262;12.210;2022-12-29T07:47:18;14.13;;;4.97;;
74867;SDS011;63419;42.262;12.210;2022-12-29T07:49:46;14.13;;;5.15;;
74867;SDS011;63419;42.262;12.210;2022-12-29T07:52:13;13.15;;;5.13;;
74867;SDS011;63419;42.262;12.210;2022-12-29T07:54:40;15.70;;;6.13;;
74867;SDS011;63419;42.262;12.210;2022-12-29T07:57:08;14.30;;;5.85;;
74867;SDS011;63419;42.262;12.210;2022-12-29T07:59:35;15.05;;;6.38;;
74867;SDS011;63419;42.262;12.210;2022-12-29T08:02:02;16.58;;;6.57;;
74867;SDS011;63419;42.262;12.210;2022-12-29T08:06:57;16.70;;;5.50;;
74867;SDS011;63419;42.262;12.210;2022-12-29T08:09:24;18.02;;;6.78;;
74867;SDS011;63419;42.262;12.210;2022-12-29T08:11:53;22.77;;;8.18;;
74867;SDS011;63419;42.262;12.210;2022-12-29T08:14:20;19.33;;;6.53;;
74867;SDS011;63419;42.262;12.210;2022-12-29T08:16:49;19.95;;;7.40;;
74867;SDS011;63419;42.262;12.210;2022-12-29T08:19:16;16.42;;;7.47;;
74867;SDS011;63419;42.262;12.210;2022-12-29T08:21:43;23.65;;;8.55;;
74867;SDS011;63419;42.262;12.210;2022-12-29T08:24:11;21.17;;;8.55;;
74867;SDS011;63419;42.262;12.210;2022-12-29T08:26:38;22.88;;;8.15;;
74867;SDS011;63419;42.262;12.210;2022-12-29T08:29:06;21.75;;;8.10;;
74867;SDS011;63419;42.262;12.210;2022-12-29T08:31:36;24.55;;;8.68;;
74867;SDS011;63419;42.262;12.210;2022-12-29T08:34:05;26.33;;;10.65;;
74867;SDS011;63419;42.262;12.210;2022-12-29T08:36:32;21.70;;;7.85;;
74867;SDS011;63419;42.262;12.210;2022-12-29T08:39:00;24.20;;;8.90;;
74867;SDS011;63419;42.262;12.210;2022-12-29T08:41:27;19.92;;;7.63;;
74867;SDS011;63419;42.262;12.210;2022-12-29T08:43:54;19.23;;;8.73;;
74867;SDS011;63419;42.262;12.210;2022-12-29T08:46:22;19.42;;;7.32;;
74867;SDS011;63419;42.262;12.210;2022-12-29T08:51:16;19.90;;;7.43;;
74867;SDS011;63419;42.262;12.210;2022-12-29T08:53:50;24.38;;;7.55;;
74867;SDS011;63419;42.262;12.210;2022-12-29T08:56:17;24.95;;;9.40;;
74867;SDS011;63419;42.262;12.210;2022-12-29T09:01:12;21.90;;;7.20;;
74867;SDS011;63419;42.262;12.210;2022-12-29T09:03:39;22.73;;;8.02;;
74867;SDS011;63419;42.262;12.210;2022-12-29T09:06:27;20.95;;;8.30;;
74867;SDS011;63419;42.262;12.210;2022-12-29T09:08:56;23.80;;;9.02;;
74867;SDS011;63419;42.262;12.210;2022-12-29T09:11:25;20.90;;;9.00;;
74867;SDS011;63419;42.262;12.210;2022-12-29T09:13:52;21.58;;;6.90;;
74867;SDS011;63419;42.262;12.210;2022-12-29T09:18:49;20.58;;;7.53;;
74867;SDS011;63419;42.262;12.210;2022-12-29T09:21:17;18.25;;;7.43;;
74867;SDS011;63419;42.262;12.210;2022-12-29T09:23:44;15.95;;;6.20;;
74867;SDS011;63419;42.262;12.210;2022-12-29T09:26:11;17.23;;;6.55;;
74867;SDS011;63419;42.262;12.210;2022-12-29T09:28:40;21.30;;;13.43;;
74867;SDS011;63419;42.262;12.210;2022-12-29T09:31:09;13.02;;;5.18;;
74867;SDS011;63419;42.262;12.210;2022-12-29T09:36:04;11.95;;;4.90;;
74867;SDS011;63419;42.262;12.210;2022-12-29T09:38:32;11.98;;;4.90;;
74867;SDS011;63419;42.262;12.210;2022-12-29T09:41:01;11.48;;;5.15;;
74867;SDS011;63419;42.262;12.210;2022-12-29T09:43:51;16.13;;;5.32;;
74867;SDS011;63419;42.262;12.210;2022-12-29T09:46:38;11.85;;;4.63;;
74867;SDS011;63419;42.262;12.210;2022-12-29T09:49:47;12.80;;;4.57;;
74867;SDS011;63419;42.262;12.210;2022-12-29T09:52:22;10.95;;;4.15;;
74867;SDS011;63419;42.262;12.210;2022-12-29T09:54:59;11.30;;;4.50;;
74867;SDS011;63419;42.262;12.210;2022-12-29T10:02:54;12.52;;;5.60;;
74867;SDS011;63419;42.262;12.210;2022-12-29T10:11:07;17.02;;;5.95;;
74867;SDS011;63419;42.262;12.210;2022-12-29T10:22:40;13.05;;;5.03;;
74867;SDS011;63419;42.262;12.210;2022-12-29T10:25:25;12.90;;;4.75;;
74867;SDS011;63419;42.262;12.210;2022-12-29T10:27:59;14.05;;;6.50;;
74867;SDS011;63419;42.262;12.210;2022-12-29T10:30:38;14.82;;;5.53;;
74867;SDS011;63419;42.262;12.210;2022-12-29T10:33:08;12.45;;;5.63;;
74867;SDS011;63419;42.262;12.210;2022-12-29T10:35:44;20.45;;;5.97;;
74867;SDS011;63419;42.262;12.210;2022-12-29T10:41:15;15.30;;;6.50;;
74867;SDS011;63419;42.262;12.210;2022-12-29T10:44:06;12.50;;;5.05;;
74867;SDS011;63419;42.262;12.210;2022-12-29T10:46:41;11.73;;;5.07;;
74867;SDS011;63419;42.262;12.210;2022-12-29T10:49:13;20.52;;;5.85;;
74867;SDS011;63419;42.262;12.210;2022-12-29T10:51:48;16.25;;;6.15;;
74867;SDS011;63419;42.262;12.210;2022-12-29T10:54:21;17.15;;;6.07;;
74867;SDS011;63419;42.262;12.210;2022-12-29T10:57:01;13.88;;;6.10;;
74867;SDS011;63419;42.262;12.210;2022-12-29T10:59:41;14.63;;;7.15;;
74867;SDS011;63419;42.262;12.210;2022-12-29T11:07:36;13.90;;;4.97;;
74867;SDS011;63419;42.262;12.210;2022-12-29T11:13:27;13.32;;;6.75;;
74867;SDS011;63419;42.262;12.210;2022-12-29T11:16:04;15.20;;;7.97;;
74867;SDS011;63419;42.262;12.210;2022-12-29T11:21:46;17.20;;;5.25;;
74867;SDS011;63419;42.262;12.210;2022-12-29T11:24:31;15.05;;;5.15;;
74867;SDS011;63419;42.262;12.210;2022-12-29T11:30:44;10.38;;;3.97;;
74867;SDS011;63419;42.262;12.210;2022-12-29T11:33:29;12.60;;;4.38;;
74867;SDS011;63419;42.262;12.210;2022-12-29T11:43:34;11.98;;;4.32;;
74867;SDS011;63419;42.262;12.210;2022-12-29T11:46:12;12.93;;;4.55;;
74867;SDS011;63419;42.262;12.210;2022-12-29T11:48:55;14.32;;;4.88;;
74867;SDS011;63419;42.262;12.210;2022-12-29T11:51:28;11.98;;;5.13;;
74867;SDS011;63419;42.262;12.210;2022-12-29T11:54:15;15.32;;;4.80;;
74867;SDS011;63419;42.262;12.210;2022-12-29T11:57:12;13.35;;;4.72;;
74867;SDS011;63419;42.262;12.210;2022-12-29T11:59:54;19.08;;;5.03;;
74867;SDS011;63419;42.262;12.210;2022-12-29T12:06:11;13.38;;;5.95;;
74867;SDS011;63419;42.262;12.210;2022-12-29T12:08:35;14.73;;;7.28;;
74867;SDS011;63419;42.262;12.210;2022-12-29T12:11:14;19.58;;;7.65;;
74867;SDS011;63419;42.262;12.210;2022-12-29T12:13:58;14.07;;;4.78;;
74867;SDS011;63419;42.262;12.210;2022-12-29T12:16:43;10.68;;;4.72;;
74867;SDS011;63419;42.262;12.210;2022-12-29T12:19:32;12.00;;;4.00;;
74867;SDS011;63419;42.262;12.210;2022-12-29T12:22:21;11.77;;;3.95;;
74867;SDS011;63419;42.262;12.210;2022-12-29T12:27:51;9.05;;;3.00;;
74867;SDS011;63419;42.262;12.210;2022-12-29T12:30:47;9.90;;;2.65;;
74867;SDS011;63419;42.262;12.210;2022-12-29T12:33:29;13.65;;;2.58;;
74867;SDS011;63419;42.262;12.210;2022-12-29T12:36:26;9.30;;;1.98;;
74867;SDS011;63419;42.262;12.210;2022-12-29T12:56:41;9.77;;;1.98;;
74867;SDS011;63419;42.262;12.210;2022-12-29T13:21:10;6.05;;;1.83;;
74867;SDS011;63419;42.262;12.210;2022-12-29T13:26:50;8.50;;;2.08;;
74867;SDS011;63419;42.262;12.210;2022-12-29T13:40:59;13.40;;;2.22;;
74867;SDS011;63419;42.262;12.210;2022-12-29T13:43:36;7.35;;;2.13;;
74867;SDS011;63419;42.262;12.210;2022-12-29T13:49:13;8.60;;;1.80;;
74867;SDS011;63419;42.262;12.210;2022-12-29T13:51:59;5.60;;;1.67;;
74867;SDS011;63419;42.262;12.210;2022-12-29T13:54:45;6.20;;;1.67;;
74867;SDS011;63419;42.262;12.210;2022-12-29T13:58:00;3.85;;;0.80;;
74867;SDS011;63419;42.262;12.210;2022-12-29T14:00:29;7.60;;;1.20;;
74867;SDS011;63419;42.262;12.210;2022-12-29T14:06:43;5.18;;;1.60;;
74867;SDS011;63419;42.262;12.210;2022-12-29T14:12:36;6.90;;;1.52;;
74867;SDS011;63419;42.262;12.210;2022-12-29T14:17:39;5.00;;;1.50;;
74867;SDS011;63419;42.262;12.210;2022-12-29T14:23:39;6.78;;;2.10;;
74867;SDS011;63419;42.262;12.210;2022-12-29T14:26:12;9.52;;;2.08;;
74867;SDS011;63419;42.262;12.210;2022-12-29T14:31:50;9.75;;;2.42;;
74867;SDS011;63419;42.262;12.210;2022-12-29T14:34:43;9.18;;;2.30;;
74867;SDS011;63419;42.262;12.210;2022-12-29T14:37:22;8.93;;;2.20;;
74867;SDS011;63419;42.262;12.210;2022-12-29T14:42:50;5.85;;;2.10;;
74867;SDS011;63419;42.262;12.210;2022-12-29T14:45:28;9.23;;;4.70;;
74867;SDS011;63419;42.262;12.210;2022-12-29T14:47:59;6.10;;;1.88;;
74867;SDS011;63419;42.262;12.210;2022-12-29T14:56:19;10.02;;;3.42;;
74867;SDS011;63419;42.262;12.210;2022-12-29T14:59:01;9.10;;;2.53;;
74867;SDS011;63419;42.262;12.210;2022-12-29T15:04:03;9.05;;;2.88;;
74867;SDS011;63419;42.262;12.210;2022-12-29T15:06:43;10.32;;;3.20;;
74867;SDS011;63419;42.262;12.210;2022-12-29T15:09:23;9.57;;;2.78;;
74867;SDS011;63419;42.262;12.210;2022-12-29T15:12:30;6.57;;;2.60;;
74867;SDS011;63419;42.262;12.210;2022-12-29T15:15:25;10.88;;;3.63;;
74867;SDS011;63419;42.262;12.210;2022-12-29T15:17:56;11.48;;;4.25;;
74867;SDS011;63419;42.262;12.210;2022-12-29T15:20:42;11.18;;;3.72;;
74867;SDS011;63419;42.262;12.210;2022-12-29T15:23:11;8.48;;;3.35;;
74867;SDS011;63419;42.262;12.210;2022-12-29T15:25:59;8.80;;;4.28;;
74867;SDS011;63419;42.262;12.210;2022-12-29T15:28:39;8.25;;;3.50;;
74867;SDS011;63419;42.262;12.210;2022-12-29T15:31:15;9.93;;;3.38;;
74867;SDS011;63419;42.262;12.210;2022-12-29T15:34:01;10.82;;;3.75;;
74867;SDS011;63419;42.262;12.210;2022-12-29T15:36:40;7.68;;;3.08;;
74867;SDS011;63419;42.262;12.210;2022-12-29T15:39:23;7.65;;;2.80;;
74867;SDS011;63419;42.262;12.210;2022-12-29T15:41:59;17.40;;;3.78;;
74867;SDS011;63419;42.262;12.210;2022-12-29T15:47:21;8.45;;;2.65;;
74867;SDS011;63419;42.262;12.210;2022-12-29T15:50:14;8.88;;;3.53;;
74867;SDS011;63419;42.262;12.210;2022-12-29T15:52:49;10.27;;;3.15;;
74867;SDS011;63419;42.262;12.210;2022-12-29T15:55:29;12.27;;;5.10;;
74867;SDS011;63419;42.262;12.210;2022-12-29T15:58:28;10.77;;;4.60;;
74867;SDS011;63419;42.262;12.210;2022-12-29T16:00:57;14.75;;;6.30;;
74867;SDS011;63419;42.262;12.210;2022-12-29T16:03:30;10.27;;;3.75;;
74867;SDS011;63419;42.262;12.210;2022-12-29T16:09:10;7.82;;;2.85;;
74867;SDS011;63419;42.262;12.210;2022-12-29T16:11:46;14.25;;;4.43;;
74867;SDS011;63419;42.262;12.210;2022-12-29T16:14:55;13.20;;;4.32;;
74867;SDS011;63419;42.262;12.210;2022-12-29T16:17:32;14.20;;;5.05;;
74867;SDS011;63419;42.262;12.210;2022-12-29T16:20:20;10.38;;;3.90;;
74867;SDS011;63419;42.262;12.210;2022-12-29T16:23:16;13.32;;;6.88;;
74867;SDS011;63419;42.262;12.210;2022-12-29T16:25:52;10.88;;;5.50;;
74867;SDS011;63419;42.262;12.210;2022-12-29T16:28:39;11.60;;;5.57;;
74867;SDS011;63419;42.262;12.210;2022-12-29T16:37:30;10.98;;;5.07;;
74867;SDS011;63419;42.262;12.210;2022-12-29T16:48:21;10.18;;;4.28;;
74867;SDS011;63419;42.262;12.210;2022-12-29T16:51:04;13.13;;;7.45;;
74867;SDS011;63419;42.262;12.210;2022-12-29T16:53:50;10.50;;;4.93;;
74867;SDS011;63419;42.262;12.210;2022-12-29T16:56:24;12.90;;;4.60;;
74867;SDS011;63419;42.262;12.210;2022-12-29T16:59:06;15.00;;;5.57;;
74867;SDS011;63419;42.262;12.210;2022-12-29T17:01:56;15.18;;;6.53;;
74867;SDS011;63419;42.262;12.210;2022-12-29T17:04:29;15.48;;;6.07;;
74867;SDS011;63419;42.262;12.210;2022-12-29T17:06:56;14.50;;;4.95;;
74867;SDS011;63419;42.262;12.210;2022-12-29T17:11:58;10.90;;;4.30;;
74867;SDS011;63419;42.262;12.210;2022-12-29T17:17:29;8.88;;;4.22;;
74867;SDS011;63419;42.262;12.210;2022-12-29T17:20:19;8.30;;;3.33;;
74867;SDS011;63419;42.262;12.210;2022-12-29T17:22:58;12.65;;;5.20;;
74867;SDS011;63419;42.262;12.210;2022-12-29T17:25:35;17.30;;;5.57;;
74867;SDS011;63419;42.262;12.210;2022-12-29T17:28:11;20.85;;;5.82;;
74867;SDS011;63419;42.262;12.210;2022-12-29T17:31:03;15.68;;;8.70;;
74867;SDS011;63419;42.262;12.210;2022-12-29T17:33:34;16.40;;;7.82;;
74867;SDS011;63419;42.262;12.210;2022-12-29T17:36:04;18.08;;;10.13;;
74867;SDS011;63419;42.262;12.210;2022-12-29T17:38:34;18.20;;;8.18;;
74867;SDS011;63419;42.262;12.210;2022-12-29T17:41:07;14.90;;;7.70;;
74867;SDS011;63419;42.262;12.210;2022-12-29T17:43:40;19.90;;;8.05;;
74867;SDS011;63419;42.262;12.210;2022-12-29T17:46:07;23.42;;;13.35;;
74867;SDS011;63419;42.262;12.210;2022-12-29T17:48:36;17.33;;;7.65;;
74867;SDS011;63419;42.262;12.210;2022-12-29T17:51:05;16.90;;;6.43;;
74867;SDS011;63419;42.262;12.210;2022-12-29T17:53:37;19.52;;;10.07;;
74867;SDS011;63419;42.262;12.210;2022-12-29T17:56:05;11.02;;;4.70;;
74867;SDS011;63419;42.262;12.210;2022-12-29T17:58:36;12.80;;;6.00;;
74867;SDS011;63419;42.262;12.210;2022-12-29T18:01:09;13.18;;;6.10;;
74867;SDS011;63419;42.262;12.210;2022-12-29T18:03:38;11.10;;;4.43;;
74867;SDS011;63419;42.262;12.210;2022-12-29T18:06:09;13.38;;;6.57;;
74867;SDS011;63419;42.262;12.210;2022-12-29T18:08:39;14.68;;;5.80;;
74867;SDS011;63419;42.262;12.210;2022-12-29T18:11:25;13.50;;;5.18;;
74867;SDS011;63419;42.262;12.210;2022-12-29T18:13:53;15.45;;;6.40;;
74867;SDS011;63419;42.262;12.210;2022-12-29T18:16:23;11.82;;;6.00;;
74867;SDS011;63419;42.262;12.210;2022-12-29T18:18:50;17.20;;;7.32;;
74867;SDS011;63419;42.262;12.210;2022-12-29T18:21:21;13.55;;;7.07;;
74867;SDS011;63419;42.262;12.210;2022-12-29T18:23:50;14.00;;;5.72;;
74867;SDS011;63419;42.262;12.210;2022-12-29T18:26:21;15.48;;;6.53;;
74867;SDS011;63419;42.262;12.210;2022-12-29T18:28:54;11.25;;;5.80;;
74867;SDS011;63419;42.262;12.210;2022-12-29T18:31:24;16.38;;;6.88;;
74867;SDS011;63419;42.262;12.210;2022-12-29T18:33:58;17.00;;;8.32;;
74867;SDS011;63419;42.262;12.210;2022-12-29T18:36:34;16.27;;;6.78;;
74867;SDS011;63419;42.262;12.210;2022-12-29T18:39:01;14.25;;;7.28;;
74867;SDS011;63419;42.262;12.210;2022-12-29T18:44:27;15.63;;;6.50;;
74867;SDS011;63419;42.262;12.210;2022-12-29T18:46:55;20.13;;;6.45;;
74867;SDS011;63419;42.262;12.210;2022-12-29T18:49:23;11.83;;;5.17;;
74867;SDS011;63419;42.262;12.210;2022-12-29T18:51:51;15.32;;;6.38;;
74867;SDS011;63419;42.262;12.210;2022-12-29T18:56:54;13.02;;;5.07;;
74867;SDS011;63419;42.262;12.210;2022-12-29T18:59:23;15.65;;;6.95;;
74867;SDS011;63419;42.262;12.210;2022-12-29T19:01:52;13.35;;;6.07;;
74867;SDS011;63419;42.262;12.210;2022-12-29T19:04:20;24.00;;;9.43;;
74867;SDS011;63419;42.262;12.210;2022-12-29T19:06:50;14.85;;;5.90;;